createdAt,value
2019-03-31T00:00:06.953Z,10.70
2019-03-31T00:02:36.150Z,10.70
2019-03-31T00:05:05.494Z,10.70
2019-03-31T00:07:34.651Z,10.70
2019-03-31T00:10:06.181Z,10.70
2019-03-31T00:12:35.406Z,10.70
2019-03-31T00:15:06.841Z,10.70
2019-03-31T00:17:36.013Z,10.70
2019-03-31T00:20:06.305Z,10.80
2019-03-31T00:22:35.551Z,10.70
2019-03-31T00:25:06.331Z,10.70
2019-03-31T00:27:35.522Z,10.70
2019-03-31T00:30:05.797Z,10.70
2019-03-31T00:32:34.958Z,10.60
2019-03-31T00:35:04.292Z,10.60
2019-03-31T00:37:33.443Z,10.50
2019-03-31T00:40:03.247Z,10.50
2019-03-31T00:42:32.507Z,10.50
2019-03-31T00:45:01.673Z,10.40
2019-03-31T00:47:30.829Z,10.40
2019-03-31T00:50:00.002Z,10.30
2019-03-31T00:52:29.167Z,10.30
2019-03-31T00:54:58.345Z,10.30
2019-03-31T00:57:27.489Z,10.30
2019-03-31T00:59:56.669Z,10.20
2019-03-31T01:02:27.481Z,10.20
2019-03-31T01:04:56.650Z,10.20
2019-03-31T01:07:25.926Z,10.10
2019-03-31T01:09:56.576Z,10.10
2019-03-31T01:12:25.746Z,10.10
2019-03-31T01:14:54.904Z,10.10
2019-03-31T01:17:24.188Z,10.10
2019-03-31T01:19:57.273Z,10.00
2019-03-31T01:22:26.532Z,10.00
2019-03-31T01:24:55.738Z,10.00
2019-03-31T01:27:25.874Z,10.00
2019-03-31T01:29:56.671Z,10.00
2019-03-31T01:32:26.711Z,10.00
2019-03-31T01:34:55.877Z,10.00
2019-03-31T01:37:25.888Z,9.90
2019-03-31T01:39:55.130Z,10.00
2019-03-31T01:42:24.402Z,10.00
2019-03-31T01:44:53.760Z,10.00
2019-03-31T01:47:22.994Z,9.90
2019-03-31T01:49:52.175Z,9.90
2019-03-31T01:52:21.367Z,9.90
2019-03-31T01:54:50.543Z,9.90
2019-03-31T01:57:19.702Z,9.90
2019-03-31T01:59:48.922Z,9.90
2019-03-31T02:02:19.737Z,9.80
2019-03-31T02:04:48.994Z,9.80
2019-03-31T02:07:18.152Z,9.80
2019-03-31T02:09:47.340Z,9.80
2019-03-31T02:12:16.554Z,9.80
2019-03-31T02:14:45.705Z,9.80
2019-03-31T02:17:15.088Z,9.80
2019-03-31T02:19:44.240Z,9.80
2019-03-31T02:22:13.413Z,9.80
2019-03-31T02:24:42.564Z,9.80
2019-03-31T02:27:11.738Z,9.80
2019-03-31T02:29:40.899Z,9.80
2019-03-31T02:32:23.359Z,9.70
2019-03-31T02:34:40.975Z,9.70
2019-03-31T02:37:10.154Z,9.70
2019-03-31T02:39:39.324Z,9.70
2019-03-31T02:42:08.476Z,9.70
2019-03-31T02:44:37.644Z,9.60
2019-03-31T02:47:06.854Z,9.70
2019-03-31T02:49:36.016Z,9.70
2019-03-31T02:52:05.192Z,9.70
2019-03-31T02:54:34.345Z,9.70
2019-03-31T02:57:04.184Z,9.80
2019-03-31T02:59:33.380Z,9.70
2019-03-31T03:02:03.135Z,9.80
2019-03-31T03:04:33.308Z,9.80
2019-03-31T03:07:03.616Z,9.80
2019-03-31T03:09:33.161Z,9.80
2019-03-31T03:12:02.348Z,9.80
2019-03-31T03:14:34.915Z,9.80
2019-03-31T03:17:04.086Z,9.80
2019-03-31T03:19:33.330Z,9.80
2019-03-31T03:22:02.500Z,9.80
2019-03-31T03:24:31.683Z,9.80
2019-03-31T03:27:00.846Z,9.80
2019-03-31T03:29:29.999Z,9.80
2019-03-31T03:31:59.165Z,9.80
2019-03-31T03:34:28.379Z,9.80
2019-03-31T03:36:57.629Z,9.80
2019-03-31T03:39:26.832Z,9.80
2019-03-31T03:41:56.002Z,9.70
2019-03-31T03:44:25.175Z,9.80
2019-03-31T03:46:54.321Z,9.70
2019-03-31T03:49:23.506Z,9.70
2019-03-31T03:51:52.667Z,9.70
2019-03-31T03:54:21.849Z,9.70
2019-03-31T03:56:51.010Z,9.60
2019-03-31T03:59:20.177Z,9.60
2019-03-31T04:01:49.348Z,9.60
2019-03-31T04:04:18.574Z,9.50
2019-03-31T04:06:47.764Z,9.50
2019-03-31T04:09:16.945Z,9.50
2019-03-31T04:11:46.181Z,9.50
2019-03-31T04:14:15.343Z,9.50
2019-03-31T04:16:44.581Z,9.50
2019-03-31T04:19:14.225Z,9.40
2019-03-31T04:21:43.538Z,9.40
2019-03-31T04:24:12.721Z,9.40
2019-03-31T04:26:41.953Z,9.30
2019-03-31T04:29:11.099Z,9.30
2019-03-31T04:31:40.273Z,9.30
2019-03-31T04:34:09.429Z,9.20
2019-03-31T04:36:38.772Z,9.20
2019-03-31T04:39:08.680Z,9.20
2019-03-31T04:41:37.839Z,9.10
2019-03-31T04:44:07.022Z,9.10
2019-03-31T04:46:36.169Z,9.10
2019-03-31T04:49:05.471Z,9.00
2019-03-31T04:51:34.617Z,9.00
2019-03-31T04:54:03.844Z,9.00
2019-03-31T04:56:33.010Z,9.00
2019-03-31T04:59:02.191Z,9.00
2019-03-31T05:01:31.363Z,8.90
2019-03-31T05:04:04.937Z,8.90
2019-03-31T05:06:33.035Z,8.80
2019-03-31T05:09:02.199Z,8.80
2019-03-31T05:11:31.359Z,8.80
2019-03-31T05:14:00.533Z,8.70
2019-03-31T05:16:29.689Z,8.70
2019-03-31T05:18:58.893Z,8.70
2019-03-31T05:21:28.162Z,8.70
2019-03-31T05:23:57.393Z,8.60
2019-03-31T05:26:26.546Z,8.60
2019-03-31T05:28:55.721Z,8.60
2019-03-31T05:31:24.873Z,8.60
2019-03-31T05:33:54.030Z,8.60
2019-03-31T05:36:23.375Z,8.60
2019-03-31T05:38:52.566Z,8.50
2019-03-31T05:41:21.789Z,8.40
2019-03-31T05:44:04.806Z,8.40
2019-03-31T05:46:21.820Z,8.30
2019-03-31T05:48:50.974Z,8.30
2019-03-31T05:51:20.170Z,8.10
2019-03-31T05:53:49.352Z,8.00
2019-03-31T05:56:18.532Z,8.00
2019-03-31T05:58:47.680Z,8.00
2019-03-31T06:01:16.921Z,7.90
2019-03-31T06:03:46.147Z,7.90
2019-03-31T06:06:15.352Z,7.90
2019-03-31T06:08:44.546Z,7.90
2019-03-31T06:11:13.847Z,8.00
2019-03-31T06:13:43.028Z,7.90
2019-03-31T06:16:12.192Z,8.00
2019-03-31T06:18:41.352Z,8.00
2019-03-31T06:21:10.556Z,8.10
2019-03-31T06:23:39.810Z,8.00
2019-03-31T06:26:09.059Z,8.00
2019-03-31T06:28:38.249Z,8.00
2019-03-31T06:31:12.895Z,8.00
2019-03-31T06:33:42.046Z,8.00
2019-03-31T06:36:11.219Z,8.00
2019-03-31T06:38:42.080Z,8.00
2019-03-31T06:41:11.292Z,8.10
2019-03-31T06:43:40.450Z,8.10
2019-03-31T06:46:09.602Z,8.10
2019-03-31T06:48:38.858Z,8.20
2019-03-31T06:51:08.035Z,8.20
2019-03-31T06:53:37.193Z,8.20
2019-03-31T06:56:06.427Z,8.30
2019-03-31T06:58:35.732Z,8.40
2019-03-31T07:01:04.895Z,8.40
2019-03-31T07:03:34.142Z,8.30
2019-03-31T07:06:03.410Z,8.30
2019-03-31T07:08:32.598Z,8.30
2019-03-31T07:11:01.761Z,8.30
2019-03-31T07:13:31.019Z,8.30
2019-03-31T07:16:00.220Z,8.30
2019-03-31T07:18:29.426Z,8.30
2019-03-31T07:20:58.598Z,8.30
2019-03-31T07:23:28.066Z,8.40
2019-03-31T07:25:57.374Z,8.30
2019-03-31T07:28:26.531Z,8.40
2019-03-31T07:30:55.688Z,8.40
2019-03-31T07:33:26.483Z,8.50
2019-03-31T07:35:55.937Z,8.50
2019-03-31T07:38:38.702Z,8.60
2019-03-31T07:41:12.934Z,8.70
2019-03-31T07:43:39.841Z,8.70
2019-03-31T07:46:08.988Z,8.90
2019-03-31T07:48:38.169Z,9.10
2019-03-31T07:51:07.399Z,9.20
2019-03-31T07:53:36.665Z,9.30
2019-03-31T07:56:05.880Z,9.40
2019-03-31T07:58:35.033Z,9.50
2019-03-31T08:01:10.887Z,9.70
2019-03-31T08:03:40.049Z,9.80
2019-03-31T08:06:09.417Z,9.90
2019-03-31T08:08:41.327Z,9.90
2019-03-31T08:11:23.361Z,9.90
2019-03-31T08:13:51.228Z,9.90
2019-03-31T08:16:20.402Z,10.00
2019-03-31T08:18:49.705Z,10.10
2019-03-31T08:21:28.217Z,10.30
2019-03-31T08:23:57.103Z,10.40
2019-03-31T08:26:26.305Z,10.50
2019-03-31T08:28:58.511Z,10.60
2019-03-31T08:31:26.395Z,10.80
2019-03-31T08:33:55.552Z,10.90
2019-03-31T08:36:26.381Z,10.90
2019-03-31T08:38:55.618Z,10.90
2019-03-31T08:41:24.796Z,11.00
2019-03-31T08:43:53.959Z,10.90
2019-03-31T08:46:23.394Z,10.80
2019-03-31T08:48:52.598Z,10.80
2019-03-31T08:51:21.785Z,10.80
2019-03-31T08:53:50.942Z,10.80
2019-03-31T08:56:21.751Z,10.80
2019-03-31T08:58:50.948Z,10.90
2019-03-31T09:01:21.804Z,10.90
2019-03-31T09:03:51.018Z,11.10
2019-03-31T09:06:20.183Z,11.20
2019-03-31T09:08:49.365Z,11.30
2019-03-31T09:11:18.634Z,11.40
2019-03-31T09:13:47.788Z,11.50
2019-03-31T09:16:16.954Z,11.60
2019-03-31T09:18:46.118Z,11.70
2019-03-31T09:21:17.377Z,11.80
2019-03-31T09:23:46.262Z,11.90
2019-03-31T09:26:15.471Z,12.10
2019-03-31T09:28:44.698Z,12.10
2019-03-31T09:31:14.146Z,12.10
2019-03-31T09:33:43.331Z,12.10
2019-03-31T09:36:16.356Z,12.10
2019-03-31T09:38:43.772Z,12.00
2019-03-31T09:41:12.916Z,12.10
2019-03-31T09:43:42.095Z,12.10
2019-03-31T09:46:11.251Z,12.00
2019-03-31T09:48:40.418Z,12.00
2019-03-31T09:51:09.596Z,12.00
2019-03-31T09:53:38.752Z,12.00
2019-03-31T09:56:08.282Z,11.90
2019-03-31T09:58:37.486Z,11.80
2019-03-31T10:01:08.237Z,11.80
2019-03-31T10:03:37.512Z,11.80
2019-03-31T10:06:10.968Z,11.80
2019-03-31T10:08:37.592Z,11.90
2019-03-31T10:11:06.935Z,11.90
2019-03-31T10:13:36.096Z,12.00
2019-03-31T10:16:05.261Z,12.00
2019-03-31T10:18:34.501Z,12.10
2019-03-31T10:21:03.688Z,12.00
2019-03-31T10:23:32.860Z,12.00
2019-03-31T10:26:02.025Z,12.00
2019-03-31T10:28:31.192Z,12.20
2019-03-31T10:31:00.375Z,12.20
2019-03-31T10:33:29.533Z,12.30
2019-03-31T10:35:58.710Z,12.30
2019-03-31T10:38:27.896Z,12.30
2019-03-31T10:40:57.072Z,12.30
2019-03-31T10:43:26.280Z,12.20
2019-03-31T10:45:57.084Z,12.20
2019-03-31T10:48:26.285Z,12.20
2019-03-31T10:50:55.440Z,12.20
2019-03-31T10:53:24.645Z,12.30
2019-03-31T10:55:54.244Z,12.30
2019-03-31T10:58:23.517Z,12.40
2019-03-31T11:00:54.244Z,12.50
2019-03-31T11:03:25.048Z,12.60
2019-03-31T11:05:54.435Z,12.80
2019-03-31T11:08:23.598Z,12.70
2019-03-31T11:10:52.768Z,12.80
2019-03-31T11:13:21.938Z,12.80
2019-03-31T11:15:51.130Z,12.80
2019-03-31T11:18:24.912Z,12.80
2019-03-31T11:20:54.178Z,12.80
2019-03-31T11:23:25.000Z,12.70
2019-03-31T11:25:54.199Z,12.70
2019-03-31T11:28:23.592Z,12.70
2019-03-31T11:31:06.189Z,12.60
2019-03-31T11:33:31.214Z,12.60
2019-03-31T11:36:00.564Z,12.60
2019-03-31T11:38:30.388Z,12.60
2019-03-31T11:41:01.196Z,12.70
2019-03-31T11:43:30.515Z,12.70
2019-03-31T11:45:59.680Z,12.70
2019-03-31T11:48:28.837Z,12.70
2019-03-31T11:51:00.426Z,12.70
2019-03-31T11:53:29.930Z,12.70
2019-03-31T11:55:59.569Z,12.80
2019-03-31T11:58:32.029Z,12.80
2019-03-31T12:00:59.648Z,12.90
2019-03-31T12:03:30.951Z,12.90
2019-03-31T12:05:59.785Z,12.90
2019-03-31T12:08:29.051Z,12.90
2019-03-31T12:10:58.364Z,12.90
2019-03-31T12:13:27.541Z,12.80
2019-03-31T12:15:56.740Z,12.60
2019-03-31T12:18:25.896Z,12.60
2019-03-31T12:20:55.054Z,12.60
2019-03-31T12:23:24.230Z,12.60
2019-03-31T12:25:53.401Z,12.50
2019-03-31T12:28:22.649Z,12.50
2019-03-31T12:30:51.920Z,12.50
2019-03-31T12:33:22.793Z,12.50
2019-03-31T12:35:58.978Z,12.50
2019-03-31T12:38:28.156Z,12.50
2019-03-31T12:40:57.322Z,12.50
2019-03-31T12:43:26.493Z,12.50
2019-03-31T12:45:55.741Z,12.60
2019-03-31T12:48:24.896Z,12.70
2019-03-31T12:50:54.095Z,12.60
2019-03-31T12:53:23.245Z,12.60
2019-03-31T12:55:59.870Z,12.60
2019-03-31T12:58:23.399Z,12.50
2019-03-31T13:00:53.137Z,12.50
2019-03-31T13:03:22.320Z,12.50
2019-03-31T13:06:10.984Z,12.60
2019-03-31T13:08:40.166Z,12.60
2019-03-31T13:11:09.321Z,12.60
2019-03-31T13:13:38.485Z,12.60
2019-03-31T13:16:09.357Z,12.50
2019-03-31T13:18:38.705Z,12.60
2019-03-31T13:21:08.404Z,12.60
2019-03-31T13:23:37.593Z,12.60
2019-03-31T13:26:06.900Z,12.60
2019-03-31T13:28:36.151Z,12.70
2019-03-31T13:31:05.394Z,12.70
2019-03-31T13:33:34.943Z,12.70
2019-03-31T13:36:04.112Z,12.80
2019-03-31T13:38:33.296Z,12.70
2019-03-31T13:41:04.135Z,12.70
2019-03-31T13:43:33.367Z,12.80
2019-03-31T13:46:02.529Z,12.90
2019-03-31T13:48:31.734Z,13.00
2019-03-31T13:51:00.957Z,13.10
2019-03-31T13:53:30.136Z,13.20
2019-03-31T13:55:59.298Z,13.10
2019-03-31T13:58:28.985Z,13.10
2019-03-31T14:00:58.447Z,13.10
2019-03-31T14:03:27.726Z,13.10
2019-03-31T14:05:56.919Z,13.10
2019-03-31T14:08:26.388Z,13.20
2019-03-31T14:10:55.652Z,13.20
2019-03-31T14:13:24.825Z,13.40
2019-03-31T14:15:54.024Z,13.30
2019-03-31T14:18:23.397Z,13.30
2019-03-31T14:20:52.560Z,13.40
2019-03-31T14:23:21.745Z,13.40
2019-03-31T14:25:50.911Z,13.40
2019-03-31T14:28:20.172Z,13.40
2019-03-31T14:30:49.353Z,13.40
2019-03-31T14:33:18.598Z,13.40
2019-03-31T14:35:47.781Z,13.40
2019-03-31T14:38:19.396Z,13.40
2019-03-31T14:40:48.604Z,13.30
2019-03-31T14:43:17.857Z,13.30
2019-03-31T14:45:47.062Z,13.30
2019-03-31T14:48:16.343Z,13.30
2019-03-31T14:50:45.517Z,13.40
2019-03-31T14:53:14.882Z,13.40
2019-03-31T14:55:44.062Z,13.40
2019-03-31T14:58:13.255Z,13.40
2019-03-31T15:00:42.439Z,13.40
2019-03-31T15:03:11.706Z,13.30
2019-03-31T15:05:40.928Z,13.30
2019-03-31T15:08:10.083Z,13.20
2019-03-31T15:10:39.334Z,13.20
2019-03-31T15:13:08.493Z,13.20
2019-03-31T15:15:37.699Z,13.20
2019-03-31T15:18:06.934Z,13.20
2019-03-31T15:20:36.163Z,13.10
2019-03-31T15:23:05.794Z,13.10
2019-03-31T15:25:35.104Z,13.10
2019-03-31T15:28:04.343Z,13.00
2019-03-31T15:30:33.520Z,13.00
2019-03-31T15:33:02.684Z,13.00
2019-03-31T15:35:31.851Z,13.00
2019-03-31T15:38:01.295Z,13.00
2019-03-31T15:40:30.453Z,13.00
2019-03-31T15:42:59.678Z,13.00
2019-03-31T15:45:28.855Z,12.90
2019-03-31T15:47:58.032Z,12.90
2019-03-31T15:50:27.283Z,12.90
2019-03-31T15:52:56.451Z,12.80
2019-03-31T15:55:25.606Z,12.80
2019-03-31T15:57:54.787Z,12.80
2019-03-31T16:00:23.970Z,12.80
2019-03-31T16:02:53.130Z,12.80
2019-03-31T16:05:22.380Z,12.80
2019-03-31T16:07:51.558Z,12.80
2019-03-31T16:10:20.724Z,12.70
2019-03-31T16:12:49.879Z,12.70
2019-03-31T16:15:19.139Z,12.70
2019-03-31T16:17:48.380Z,12.70
2019-03-31T16:20:20.632Z,12.70
2019-03-31T16:22:49.784Z,12.70
2019-03-31T16:25:26.842Z,12.60
2019-03-31T16:27:56.073Z,12.60
2019-03-31T16:30:25.238Z,12.50
2019-03-31T16:32:54.404Z,12.50
2019-03-31T16:35:23.571Z,12.50
2019-03-31T16:37:52.752Z,12.50
2019-03-31T16:40:21.992Z,12.50
2019-03-31T16:42:51.268Z,12.50
2019-03-31T16:45:20.520Z,12.50
2019-03-31T16:47:49.681Z,12.40
2019-03-31T16:50:18.988Z,12.40
2019-03-31T16:52:48.223Z,12.30
2019-03-31T16:55:17.529Z,12.30
2019-03-31T16:57:46.677Z,12.30
2019-03-31T17:00:17.939Z,12.20
2019-03-31T17:02:47.106Z,12.20
2019-03-31T17:05:21.989Z,12.10
2019-03-31T17:07:47.188Z,12.10
2019-03-31T17:10:16.489Z,12.10
2019-03-31T17:12:45.662Z,12.00
2019-03-31T18:10:53.543Z,18.00
2019-03-31T18:13:22.784Z,16.90
2019-03-31T18:15:52.080Z,15.70
2019-03-31T18:18:21.279Z,14.70
2019-03-31T18:20:50.500Z,13.90
2019-03-31T18:23:19.838Z,13.40
2019-03-31T18:25:52.002Z,12.90
2019-03-31T18:28:21.306Z,12.50
2019-03-31T18:30:55.493Z,12.20
2019-03-31T18:33:24.775Z,12.00
2019-03-31T18:35:54.003Z,11.80
2019-03-31T18:38:23.297Z,11.60
2019-03-31T18:40:52.525Z,11.40
2019-03-31T18:43:21.740Z,11.30
2019-03-31T18:45:50.957Z,11.20
2019-03-31T18:48:20.124Z,11.10
2019-03-31T18:50:49.426Z,10.90
2019-03-31T18:53:23.346Z,10.80
2019-03-31T18:56:10.553Z,10.80
2019-03-31T18:58:43.817Z,10.70
2019-03-31T19:01:14.718Z,10.60
2019-03-31T19:03:48.530Z,10.50
2019-03-31T19:06:28.306Z,10.50
2019-03-31T19:09:07.887Z,10.40
2019-03-31T19:11:54.651Z,10.40
2019-03-31T19:14:28.560Z,10.30
2019-03-31T19:17:15.626Z,10.20
2019-03-31T19:20:02.823Z,10.20
2019-03-31T19:22:33.636Z,10.20
2019-03-31T19:25:07.235Z,10.10
2019-03-31T19:27:38.069Z,10.00
2019-03-31T19:30:09.117Z,10.00
2019-03-31T19:32:42.998Z,9.90
2019-03-31T19:35:19.922Z,9.90
2019-03-31T19:37:56.310Z,9.80
2019-03-31T19:40:43.514Z,9.80
2019-03-31T19:43:17.026Z,9.70
2019-03-31T19:46:06.128Z,9.70
2019-03-31T19:48:42.937Z,9.60
2019-03-31T19:51:22.914Z,9.50
2019-03-31T19:54:09.581Z,9.50
2019-03-31T19:56:56.807Z,9.40
2019-03-31T19:59:27.642Z,9.40
2019-03-31T20:02:04.662Z,9.30
2019-03-31T20:04:51.566Z,9.30
2019-03-31T20:07:38.253Z,9.20
2019-03-31T20:10:17.933Z,9.20
2019-03-31T20:12:57.793Z,9.20
2019-03-31T20:15:28.606Z,9.20
2019-03-31T20:18:11.103Z,9.10
2019-03-31T20:20:41.968Z,9.10
2019-03-31T20:23:29.126Z,9.00
2019-03-31T20:26:03.711Z,8.90
2019-03-31T20:28:35.116Z,8.90
2019-03-31T20:31:08.783Z,8.80
2019-03-31T20:33:48.375Z,8.80
2019-03-31T20:36:19.192Z,8.70
2019-03-31T20:39:08.093Z,8.70
2019-03-31T20:41:38.976Z,8.70
2019-03-31T20:44:08.344Z,8.60
2019-03-31T20:46:37.477Z,8.60
2019-03-31T20:49:06.718Z,8.50
2019-03-31T20:51:35.899Z,8.50
2019-03-31T20:54:05.117Z,8.50
2019-03-31T20:56:34.361Z,8.40
2019-03-31T20:59:03.575Z,8.40
2019-03-31T21:01:32.768Z,8.40
2019-03-31T21:04:02.077Z,8.30
2019-03-31T21:06:31.286Z,8.30
2019-03-31T21:09:00.570Z,8.30
2019-03-31T21:11:29.738Z,8.20
2019-03-31T21:13:58.978Z,8.20
2019-03-31T21:16:28.105Z,8.20
2019-03-31T21:18:57.399Z,8.10
2019-03-31T21:21:26.660Z,8.10
2019-03-31T21:23:55.808Z,8.10
2019-03-31T21:26:29.543Z,8.00
2019-03-31T21:28:58.766Z,8.00
2019-03-31T21:31:27.919Z,8.00
2019-03-31T21:33:57.101Z,7.90
2019-03-31T21:36:26.289Z,7.90
2019-03-31T21:38:55.508Z,7.90
2019-03-31T21:41:24.683Z,7.90
2019-03-31T21:43:53.874Z,7.80
2019-03-31T21:46:23.074Z,7.80
2019-03-31T21:48:52.309Z,7.80
2019-03-31T21:51:21.638Z,7.70
2019-03-31T21:53:50.835Z,7.70
2019-03-31T21:56:20.093Z,7.70
2019-03-31T21:58:49.252Z,7.60
2019-03-31T22:01:18.456Z,7.60
2019-03-31T22:03:47.661Z,7.50
2019-03-31T22:06:16.810Z,7.50
2019-03-31T22:08:46.006Z,7.50
2019-03-31T22:11:15.309Z,7.40
2019-03-31T22:13:44.485Z,7.40
2019-03-31T22:16:13.696Z,7.40
2019-03-31T22:18:42.871Z,7.30
2019-03-31T22:21:12.098Z,7.30
2019-03-31T22:23:41.259Z,7.20
2019-03-31T22:26:10.414Z,7.20
2019-03-31T22:28:39.692Z,7.20
2019-03-31T22:31:08.912Z,7.10
2019-03-31T22:33:38.070Z,7.10
2019-03-31T22:36:22.149Z,7.00
2019-03-31T22:38:52.715Z,7.00
2019-03-31T22:41:21.419Z,7.00
2019-03-31T22:43:50.703Z,7.00
2019-03-31T22:46:19.933Z,6.90
2019-03-31T22:48:49.145Z,6.90
2019-03-31T22:51:18.374Z,6.80
2019-03-31T22:53:47.536Z,6.80
2019-03-31T22:56:16.736Z,6.80
2019-03-31T22:58:45.926Z,6.80
2019-03-31T23:01:15.054Z,6.70
2019-03-31T23:03:44.240Z,6.70
2019-03-31T23:06:13.568Z,6.70
2019-03-31T23:08:43.000Z,6.70
2019-03-31T23:11:12.124Z,6.60
2019-03-31T23:13:41.335Z,6.60
2019-03-31T23:16:10.704Z,6.60
2019-03-31T23:18:41.554Z,6.50
2019-03-31T23:21:10.703Z,6.50
2019-03-31T23:23:39.924Z,6.50
2019-03-31T23:26:09.115Z,6.40
2019-03-31T23:28:40.072Z,6.40
2019-03-31T23:31:09.296Z,6.40
2019-03-31T23:33:38.425Z,6.30
2019-03-31T23:36:07.611Z,6.30
2019-03-31T23:38:36.803Z,6.20
2019-03-31T23:41:05.971Z,6.20
2019-03-31T23:43:35.159Z,6.20
2019-03-31T23:46:04.402Z,6.20
2019-03-31T23:48:33.572Z,6.10
2019-03-31T23:51:02.786Z,6.00
2019-03-31T23:53:31.942Z,6.00
2019-03-31T23:56:01.133Z,5.90
2019-03-31T23:58:30.352Z,5.90
